sensor_id;sensor_type;location;lat;lon;timestamp;temperature;humidity
19999;DHT22;10160;50.926;4.374;2023-02-01T00:02:17;7.80;99.90
19999;DHT22;10160;50.926;4.374;2023-02-01T00:04:42;7.70;99.90
19999;DHT22;10160;50.926;4.374;2023-02-01T00:07:08;7.70;99.90
19999;DHT22;10160;50.926;4.374;2023-02-01T00:09:34;7.80;99.90
19999;DHT22;10160;50.926;4.374;2023-02-01T00:11:59;7.80;99.90
19999;DHT22;10160;50.926;4.374;2023-02-01T00:14:27;7.90;99.90
19999;DHT22;10160;50.926;4.374;2023-02-01T00:16:53;7.90;99.90
19999;DHT22;10160;50.926;4.374;2023-02-01T00:19:19;7.90;99.90
19999;DHT22;10160;50.926;4.374;2023-02-01T00:21:44;7.80;99.90
19999;DHT22;10160;50.926;4.374;2023-02-01T00:24:11;7.90;99.90
19999;DHT22;10160;50.926;4.374;2023-02-01T00:26:39;8.10;99.90
19999;DHT22;10160;50.926;4.374;2023-02-01T00:29:15;7.90;99.90
19999;DHT22;10160;50.926;4.374;2023-02-01T00:31:41;7.90;99.90
19999;DHT22;10160;50.926;4.374;2023-02-01T00:34:08;7.90;99.90
19999;DHT22;10160;50.926;4.374;2023-02-01T00:36:34;8.00;99.90
19999;DHT22;10160;50.926;4.374;2023-02-01T00:39:00;7.90;99.90
19999;DHT22;10160;50.926;4.374;2023-02-01T00:41:26;8.00;99.90
19999;DHT22;10160;50.926;4.374;2023-02-01T00:43:52;7.90;99.90
19999;DHT22;10160;50.926;4.374;2023-02-01T00:46:19;7.90;99.90
19999;DHT22;10160;50.926;4.374;2023-02-01T00:48:45;7.90;99.90
19999;DHT22;10160;50.926;4.374;2023-02-01T00:51:13;7.90;99.90
19999;DHT22;10160;50.926;4.374;2023-02-01T00:53:40;7.90;99.90
19999;DHT22;10160;50.926;4.374;2023-02-01T00:56:06;7.90;99.90
19999;DHT22;10160;50.926;4.374;2023-02-01T00:58:32;7.90;99.90
19999;DHT22;10160;50.926;4.374;2023-02-01T01:01:25;7.90;99.90
19999;DHT22;10160;50.926;4.374;2023-02-01T01:03:56;7.90;99.90
19999;DHT22;10160;50.926;4.374;2023-02-01T01:06:33;7.90;99.90
19999;DHT22;10160;50.926;4.374;2023-02-01T01:09:00;7.90;99.90
19999;DHT22;10160;50.926;4.374;2023-02-01T01:11:29;7.90;99.90
19999;DHT22;10160;50.926;4.374;2023-02-01T01:13:56;7.90;99.90
19999;DHT22;10160;50.926;4.374;2023-02-01T01:16:24;7.80;99.90
19999;DHT22;10160;50.926;4.374;2023-02-01T01:18:51;7.90;99.90
19999;DHT22;10160;50.926;4.374;2023-02-01T01:21:18;7.90;99.90
19999;DHT22;10160;50.926;4.374;2023-02-01T01:23:44;8.00;99.90
19999;DHT22;10160;50.926;4.374;2023-02-01T01:26:16;7.90;99.90
19999;DHT22;10160;50.926;4.374;2023-02-01T01:28:43;7.90;99.90
19999;DHT22;10160;50.926;4.374;2023-02-01T01:31:10;7.90;99.90
19999;DHT22;10160;50.926;4.374;2023-02-01T01:33:36;7.80;99.90
19999;DHT22;10160;50.926;4.374;2023-02-01T01:36:05;7.90;99.90
19999;DHT22;10160;50.926;4.374;2023-02-01T01:38:31;8.00;99.90
19999;DHT22;10160;50.926;4.374;2023-02-01T01:40:56;7.90;99.90
19999;DHT22;10160;50.926;4.374;2023-02-01T01:43:22;7.80;99.90
19999;DHT22;10160;50.926;4.374;2023-02-01T01:45:49;7.90;99.90
19999;DHT22;10160;50.926;4.374;2023-02-01T01:48:33;7.80;99.90
19999;DHT22;10160;50.926;4.374;2023-02-01T01:51:06;7.80;99.90
19999;DHT22;10160;50.926;4.374;2023-02-01T01:53:46;7.70;99.90
19999;DHT22;10160;50.926;4.374;2023-02-01T01:56:13;7.60;99.90
19999;DHT22;10160;50.926;4.374;2023-02-01T01:58:40;7.60;99.90
19999;DHT22;10160;50.926;4.374;2023-02-01T02:01:06;7.50;99.90
19999;DHT22;10160;50.926;4.374;2023-02-01T02:03:39;7.60;99.90
19999;DHT22;10160;50.926;4.374;2023-02-01T02:06:20;7.50;99.90
19999;DHT22;10160;50.926;4.374;2023-02-01T02:08:47;7.40;99.90
19999;DHT22;10160;50.926;4.374;2023-02-01T02:11:16;7.40;99.90
19999;DHT22;10160;50.926;4.374;2023-02-01T02:13:44;7.40;99.90
19999;DHT22;10160;50.926;4.374;2023-02-01T02:33:58;7.20;99.90
19999;DHT22;10160;50.926;4.374;2023-02-01T02:51:05;7.20;99.90
19999;DHT22;10160;50.926;4.374;2023-02-01T02:54:17;7.20;99.90
19999;DHT22;10160;50.926;4.374;2023-02-01T02:57:05;7.20;99.90
19999;DHT22;10160;50.926;4.374;2023-02-01T02:59:51;7.20;99.90
19999;DHT22;10160;50.926;4.374;2023-02-01T03:02:37;7.10;99.90
19999;DHT22;10160;50.926;4.374;2023-02-01T03:05:21;7.00;99.90
19999;DHT22;10160;50.926;4.374;2023-02-01T03:07:53;7.00;99.90
19999;DHT22;10160;50.926;4.374;2023-02-01T03:10:32;7.10;99.90
19999;DHT22;10160;50.926;4.374;2023-02-01T03:13:07;7.10;99.90
19999;DHT22;10160;50.926;4.374;2023-02-01T03:15:50;7.10;99.90
19999;DHT22;10160;50.926;4.374;2023-02-01T03:21:23;7.00;99.90
19999;DHT22;10160;50.926;4.374;2023-02-01T03:23:52;7.00;99.90
19999;DHT22;10160;50.926;4.374;2023-02-01T03:26:20;6.90;99.90
19999;DHT22;10160;50.926;4.374;2023-02-01T03:28:55;6.90;99.90
19999;DHT22;10160;50.926;4.374;2023-02-01T03:31:23;6.90;99.90
19999;DHT22;10160;50.926;4.374;2023-02-01T03:33:49;7.00;99.90
19999;DHT22;10160;50.926;4.374;2023-02-01T03:36:24;7.00;99.90
19999;DHT22;10160;50.926;4.374;2023-02-01T03:41:53;7.00;99.90
19999;DHT22;10160;50.926;4.374;2023-02-01T03:47:03;6.90;99.90
19999;DHT22;10160;50.926;4.374;2023-02-01T03:49:36;7.00;99.90
19999;DHT22;10160;50.926;4.374;2023-02-01T03:52:06;6.90;99.90
19999;DHT22;10160;50.926;4.374;2023-02-01T03:54:34;6.90;99.90
19999;DHT22;10160;50.926;4.374;2023-02-01T03:57:06;6.90;99.90
19999;DHT22;10160;50.926;4.374;2023-02-01T03:59:33;6.80;99.90
19999;DHT22;10160;50.926;4.374;2023-02-01T04:01:58;6.80;99.90
19999;DHT22;10160;50.926;4.374;2023-02-01T04:04:25;6.80;99.90
19999;DHT22;10160;50.926;4.374;2023-02-01T04:06:51;6.70;99.90
19999;DHT22;10160;50.926;4.374;2023-02-01T04:09:17;6.70;99.90
19999;DHT22;10160;50.926;4.374;2023-02-01T04:11:43;6.70;99.90
19999;DHT22;10160;50.926;4.374;2023-02-01T04:14:09;6.70;99.90
19999;DHT22;10160;50.926;4.374;2023-02-01T04:16:35;6.70;99.90
19999;DHT22;10160;50.926;4.374;2023-02-01T04:19:01;6.70;99.90
19999;DHT22;10160;50.926;4.374;2023-02-01T04:21:27;6.60;99.90
19999;DHT22;10160;50.926;4.374;2023-02-01T04:23:53;6.70;99.90
19999;DHT22;10160;50.926;4.374;2023-02-01T04:26:20;6.70;99.90
19999;DHT22;10160;50.926;4.374;2023-02-01T04:28:46;6.60;99.90
19999;DHT22;10160;50.926;4.374;2023-02-01T04:31:16;6.50;99.90
19999;DHT22;10160;50.926;4.374;2023-02-01T04:33:42;6.60;99.90
19999;DHT22;10160;50.926;4.374;2023-02-01T04:36:08;6.50;99.90
19999;DHT22;10160;50.926;4.374;2023-02-01T04:38:33;6.50;99.90
19999;DHT22;10160;50.926;4.374;2023-02-01T04:40:59;6.40;99.90
19999;DHT22;10160;50.926;4.374;2023-02-01T04:43:25;6.50;99.90
19999;DHT22;10160;50.926;4.374;2023-02-01T04:45:51;6.30;99.90
19999;DHT22;10160;50.926;4.374;2023-02-01T04:48:18;6.40;99.90
19999;DHT22;10160;50.926;4.374;2023-02-01T04:50:45;6.40;99.90
19999;DHT22;10160;50.926;4.374;2023-02-01T04:53:13;6.40;99.90
19999;DHT22;10160;50.926;4.374;2023-02-01T04:55:40;6.30;99.90
19999;DHT22;10160;50.926;4.374;2023-02-01T04:58:05;6.40;99.90
19999;DHT22;10160;50.926;4.374;2023-02-01T05:00:31;6.40;99.90
19999;DHT22;10160;50.926;4.374;2023-02-01T05:02:57;6.40;99.90
19999;DHT22;10160;50.926;4.374;2023-02-01T05:05:23;6.20;99.90
19999;DHT22;10160;50.926;4.374;2023-02-01T05:07:48;6.30;99.90
19999;DHT22;10160;50.926;4.374;2023-02-01T05:10:14;6.30;99.90
19999;DHT22;10160;50.926;4.374;2023-02-01T05:12:40;6.30;99.90
19999;DHT22;10160;50.926;4.374;2023-02-01T05:15:24;6.30;99.90
19999;DHT22;10160;50.926;4.374;2023-02-01T05:17:49;6.20;99.90
19999;DHT22;10160;50.926;4.374;2023-02-01T05:20:15;6.10;99.90
19999;DHT22;10160;50.926;4.374;2023-02-01T05:22:41;6.10;99.90
19999;DHT22;10160;50.926;4.374;2023-02-01T05:25:07;6.10;99.90
19999;DHT22;10160;50.926;4.374;2023-02-01T05:27:33;6.10;99.90
19999;DHT22;10160;50.926;4.374;2023-02-01T05:29:59;6.00;99.90
19999;DHT22;10160;50.926;4.374;2023-02-01T05:32:24;6.10;99.90
19999;DHT22;10160;50.926;4.374;2023-02-01T05:34:50;6.10;99.90
19999;DHT22;10160;50.926;4.374;2023-02-01T05:37:15;6.00;99.90
19999;DHT22;10160;50.926;4.374;2023-02-01T05:39:41;6.00;99.90
19999;DHT22;10160;50.926;4.374;2023-02-01T05:42:07;5.90;99.90
19999;DHT22;10160;50.926;4.374;2023-02-01T05:44:32;5.90;99.90
19999;DHT22;10160;50.926;4.374;2023-02-01T05:46:58;5.80;99.90
19999;DHT22;10160;50.926;4.374;2023-02-01T05:49:23;5.80;99.90
19999;DHT22;10160;50.926;4.374;2023-02-01T05:51:49;5.80;99.90
19999;DHT22;10160;50.926;4.374;2023-02-01T05:54:15;5.80;99.90
19999;DHT22;10160;50.926;4.374;2023-02-01T05:56:40;5.70;99.90
19999;DHT22;10160;50.926;4.374;2023-02-01T05:59:06;5.70;99.90
19999;DHT22;10160;50.926;4.374;2023-02-01T06:01:32;5.70;99.90
19999;DHT22;10160;50.926;4.374;2023-02-01T06:03:57;5.70;99.90
19999;DHT22;10160;50.926;4.374;2023-02-01T06:06:23;5.80;99.90
19999;DHT22;10160;50.926;4.374;2023-02-01T06:08:49;5.80;99.90
19999;DHT22;10160;50.926;4.374;2023-02-01T06:11:14;5.70;99.90
19999;DHT22;10160;50.926;4.374;2023-02-01T06:13:40;5.70;99.90
19999;DHT22;10160;50.926;4.374;2023-02-01T06:16:06;5.80;99.90
19999;DHT22;10160;50.926;4.374;2023-02-01T06:18:34;5.80;99.90
19999;DHT22;10160;50.926;4.374;2023-02-01T06:21:00;5.80;99.90
19999;DHT22;10160;50.926;4.374;2023-02-01T06:23:26;5.80;99.90
19999;DHT22;10160;50.926;4.374;2023-02-01T06:25:58;5.70;99.90
19999;DHT22;10160;50.926;4.374;2023-02-01T06:28:24;5.70;99.90
19999;DHT22;10160;50.926;4.374;2023-02-01T06:30:50;5.70;99.90
19999;DHT22;10160;50.926;4.374;2023-02-01T06:33:16;5.70;99.90
19999;DHT22;10160;50.926;4.374;2023-02-01T06:35:42;5.70;99.90
19999;DHT22;10160;50.926;4.374;2023-02-01T06:38:13;5.70;99.90
19999;DHT22;10160;50.926;4.374;2023-02-01T06:40:39;5.70;99.90
19999;DHT22;10160;50.926;4.374;2023-02-01T06:43:07;5.80;99.90
19999;DHT22;10160;50.926;4.374;2023-02-01T06:45:33;5.70;99.90
19999;DHT22;10160;50.926;4.374;2023-02-01T06:47:59;5.80;99.90
19999;DHT22;10160;50.926;4.374;2023-02-01T06:50:26;5.80;99.90
19999;DHT22;10160;50.926;4.374;2023-02-01T06:52:52;5.80;99.90
19999;DHT22;10160;50.926;4.374;2023-02-01T06:55:17;5.70;99.90
19999;DHT22;10160;50.926;4.374;2023-02-01T06:57:43;5.80;99.90
19999;DHT22;10160;50.926;4.374;2023-02-01T07:00:09;5.80;99.90
19999;DHT22;10160;50.926;4.374;2023-02-01T07:02:35;5.80;99.90
19999;DHT22;10160;50.926;4.374;2023-02-01T07:05:01;5.80;99.90
19999;DHT22;10160;50.926;4.374;2023-02-01T07:07:26;5.80;99.90
19999;DHT22;10160;50.926;4.374;2023-02-01T07:09:52;5.70;99.90
19999;DHT22;10160;50.926;4.374;2023-02-01T07:12:19;5.70;99.90
19999;DHT22;10160;50.926;4.374;2023-02-01T07:14:44;5.70;99.90
19999;DHT22;10160;50.926;4.374;2023-02-01T07:17:10;5.80;99.90
19999;DHT22;10160;50.926;4.374;2023-02-01T07:19:36;5.90;99.90
19999;DHT22;10160;50.926;4.374;2023-02-01T07:22:01;5.80;99.90
19999;DHT22;10160;50.926;4.374;2023-02-01T07:24:27;5.80;99.90
19999;DHT22;10160;50.926;4.374;2023-02-01T07:26:53;5.80;99.90
19999;DHT22;10160;50.926;4.374;2023-02-01T07:29:19;5.80;99.90
19999;DHT22;10160;50.926;4.374;2023-02-01T07:31:44;5.80;99.90
19999;DHT22;10160;50.926;4.374;2023-02-01T07:34:10;5.80;99.90
19999;DHT22;10160;50.926;4.374;2023-02-01T07:36:36;5.80;99.90
19999;DHT22;10160;50.926;4.374;2023-02-01T07:39:03;5.80;99.90
19999;DHT22;10160;50.926;4.374;2023-02-01T07:41:29;5.90;99.90
19999;DHT22;10160;50.926;4.374;2023-02-01T07:43:55;5.80;99.90
19999;DHT22;10160;50.926;4.374;2023-02-01T07:46:22;5.90;99.90
19999;DHT22;10160;50.926;4.374;2023-02-01T07:48:48;6.00;99.90
19999;DHT22;10160;50.926;4.374;2023-02-01T07:51:16;5.90;99.90
19999;DHT22;10160;50.926;4.374;2023-02-01T07:53:42;6.00;99.90
19999;DHT22;10160;50.926;4.374;2023-02-01T07:56:18;6.00;99.90
19999;DHT22;10160;50.926;4.374;2023-02-01T07:58:52;6.10;99.90
19999;DHT22;10160;50.926;4.374;2023-02-01T08:01:21;6.10;99.90
19999;DHT22;10160;50.926;4.374;2023-02-01T08:03:57;6.20;99.90
19999;DHT22;10160;50.926;4.374;2023-02-01T08:06:25;6.20;99.90
19999;DHT22;10160;50.926;4.374;2023-02-01T08:08:51;6.30;99.90
19999;DHT22;10160;50.926;4.374;2023-02-01T08:11:18;6.40;99.90
19999;DHT22;10160;50.926;4.374;2023-02-01T08:13:44;6.50;99.90
19999;DHT22;10160;50.926;4.374;2023-02-01T08:16:12;6.50;99.90
19999;DHT22;10160;50.926;4.374;2023-02-01T08:18:38;6.40;99.90
19999;DHT22;10160;50.926;4.374;2023-02-01T08:21:08;6.50;99.90
19999;DHT22;10160;50.926;4.374;2023-02-01T08:23:35;6.50;99.90
19999;DHT22;10160;50.926;4.374;2023-02-01T08:26:28;6.40;99.90
19999;DHT22;10160;50.926;4.374;2023-02-01T08:28:59;6.40;99.90
19999;DHT22;10160;50.926;4.374;2023-02-01T08:31:26;6.50;99.90
19999;DHT22;10160;50.926;4.374;2023-02-01T08:33:58;6.60;99.90
19999;DHT22;10160;50.926;4.374;2023-02-01T08:36:25;6.70;99.90
19999;DHT22;10160;50.926;4.374;2023-02-01T08:38:51;6.60;99.90
19999;DHT22;10160;50.926;4.374;2023-02-01T08:41:20;6.70;99.90
19999;DHT22;10160;50.926;4.374;2023-02-01T08:43:46;6.70;99.90
19999;DHT22;10160;50.926;4.374;2023-02-01T08:46:13;6.80;99.90
19999;DHT22;10160;50.926;4.374;2023-02-01T08:48:39;6.90;99.90
19999;DHT22;10160;50.926;4.374;2023-02-01T08:51:08;7.00;99.90
19999;DHT22;10160;50.926;4.374;2023-02-01T08:53:35;7.10;99.90
19999;DHT22;10160;50.926;4.374;2023-02-01T08:56:02;7.10;99.90
19999;DHT22;10160;50.926;4.374;2023-02-01T08:58:27;7.10;99.90
19999;DHT22;10160;50.926;4.374;2023-02-01T09:00:53;7.10;99.90
19999;DHT22;10160;50.926;4.374;2023-02-01T09:03:19;7.20;99.90
19999;DHT22;10160;50.926;4.374;2023-02-01T09:05:45;7.20;99.90
19999;DHT22;10160;50.926;4.374;2023-02-01T09:08:11;7.10;99.90
19999;DHT22;10160;50.926;4.374;2023-02-01T09:10:41;7.20;99.90
19999;DHT22;10160;50.926;4.374;2023-02-01T09:13:07;7.40;99.90
19999;DHT22;10160;50.926;4.374;2023-02-01T09:15:33;7.70;99.90
19999;DHT22;10160;50.926;4.374;2023-02-01T09:17:59;7.90;99.90
19999;DHT22;10160;50.926;4.374;2023-02-01T09:20:25;8.00;99.90
19999;DHT22;10160;50.926;4.374;2023-02-01T09:22:52;8.00;99.90
19999;DHT22;10160;50.926;4.374;2023-02-01T09:25:17;8.10;99.90
19999;DHT22;10160;50.926;4.374;2023-02-01T09:27:43;8.30;99.90
19999;DHT22;10160;50.926;4.374;2023-02-01T09:30:09;8.40;99.90
19999;DHT22;10160;50.926;4.374;2023-02-01T09:32:36;8.40;99.90
19999;DHT22;10160;50.926;4.374;2023-02-01T09:35:02;8.20;99.90
19999;DHT22;10160;50.926;4.374;2023-02-01T09:37:28;8.20;99.90
19999;DHT22;10160;50.926;4.374;2023-02-01T09:39:53;8.40;99.90
19999;DHT22;10160;50.926;4.374;2023-02-01T09:45:14;8.40;99.90
19999;DHT22;10160;50.926;4.374;2023-02-01T09:47:49;8.40;99.90
19999;DHT22;10160;50.926;4.374;2023-02-01T09:50:19;8.50;99.90
19999;DHT22;10160;50.926;4.374;2023-02-01T09:52:54;8.70;99.90
19999;DHT22;10160;50.926;4.374;2023-02-01T09:58:09;8.90;99.90
19999;DHT22;10160;50.926;4.374;2023-02-01T10:00:38;9.00;99.90
19999;DHT22;10160;50.926;4.374;2023-02-01T10:03:05;9.00;99.90
19999;DHT22;10160;50.926;4.374;2023-02-01T10:09:02;9.40;99.90
19999;DHT22;10160;50.926;4.374;2023-02-01T10:20:12;10.00;99.90
19999;DHT22;10160;50.926;4.374;2023-02-01T10:22:46;10.30;99.90
19999;DHT22;10160;50.926;4.374;2023-02-01T10:25:31;10.60;99.90
19999;DHT22;10160;50.926;4.374;2023-02-01T10:28:01;10.70;99.90
19999;DHT22;10160;50.926;4.374;2023-02-01T10:30:33;11.00;99.90
19999;DHT22;10160;50.926;4.374;2023-02-01T10:33:16;11.50;99.90
19999;DHT22;10160;50.926;4.374;2023-02-01T10:35:45;12.10;99.90
19999;DHT22;10160;50.926;4.374;2023-02-01T10:38:25;12.50;99.90
19999;DHT22;10160;50.926;4.374;2023-02-01T10:40:57;12.40;99.90
19999;DHT22;10160;50.926;4.374;2023-02-01T10:43:26;13.00;99.90
19999;DHT22;10160;50.926;4.374;2023-02-01T10:45:52;14.10;99.90
19999;DHT22;10160;50.926;4.374;2023-02-01T10:48:17;14.30;99.90
19999;DHT22;10160;50.926;4.374;2023-02-01T10:50:59;14.60;99.90
19999;DHT22;10160;50.926;4.374;2023-02-01T10:53:35;14.80;99.90
19999;DHT22;10160;50.926;4.374;2023-02-01T10:56:09;14.70;99.90
19999;DHT22;10160;50.926;4.374;2023-02-01T10:58:42;14.90;99.90
19999;DHT22;10160;50.926;4.374;2023-02-01T11:01:10;14.10;99.90
19999;DHT22;10160;50.926;4.374;2023-02-01T11:03:56;13.30;99.90
19999;DHT22;10160;50.926;4.374;2023-02-01T11:11:53;11.50;99.90
19999;DHT22;10160;50.926;4.374;2023-02-01T11:14:34;11.10;99.90
19999;DHT22;10160;50.926;4.374;2023-02-01T11:17:12;11.20;99.90
19999;DHT22;10160;50.926;4.374;2023-02-01T11:19:56;11.60;99.90
19999;DHT22;10160;50.926;4.374;2023-02-01T11:22:24;11.90;99.90
19999;DHT22;10160;50.926;4.374;2023-02-01T11:24:50;11.80;99.90
19999;DHT22;10160;50.926;4.374;2023-02-01T11:27:20;11.40;99.90
19999;DHT22;10160;50.926;4.374;2023-02-01T11:29:50;11.20;99.90
19999;DHT22;10160;50.926;4.374;2023-02-01T11:32:19;11.00;99.90
19999;DHT22;10160;50.926;4.374;2023-02-01T11:34:49;10.70;99.90
19999;DHT22;10160;50.926;4.374;2023-02-01T11:37:36;10.60;99.90
19999;DHT22;10160;50.926;4.374;2023-02-01T11:40:23;10.40;99.90
19999;DHT22;10160;50.926;4.374;2023-02-01T11:42:58;10.40;99.90
19999;DHT22;10160;50.926;4.374;2023-02-01T11:45:28;10.60;99.90
19999;DHT22;10160;50.926;4.374;2023-02-01T11:47:55;10.80;99.90
19999;DHT22;10160;50.926;4.374;2023-02-01T11:50:42;10.90;99.90
19999;DHT22;10160;50.926;4.374;2023-02-01T12:01:05;11.30;99.90
19999;DHT22;10160;50.926;4.374;2023-02-01T12:03:50;11.10;99.90
19999;DHT22;10160;50.926;4.374;2023-02-01T12:11:58;11.00;99.90
19999;DHT22;10160;50.926;4.374;2023-02-01T12:20:14;11.70;99.90
19999;DHT22;10160;50.926;4.374;2023-02-01T12:22:55;12.10;99.90
19999;DHT22;10160;50.926;4.374;2023-02-01T12:25:56;11.80;99.90
19999;DHT22;10160;50.926;4.374;2023-02-01T12:39:35;12.90;99.90
19999;DHT22;10160;50.926;4.374;2023-02-01T12:42:17;13.70;99.90
19999;DHT22;10160;50.926;4.374;2023-02-01T12:44:59;13.50;99.90
19999;DHT22;10160;50.926;4.374;2023-02-01T12:50:25;13.10;99.90
19999;DHT22;10160;50.926;4.374;2023-02-01T12:52:56;13.30;99.90
19999;DHT22;10160;50.926;4.374;2023-02-01T12:57:55;12.70;99.90
19999;DHT22;10160;50.926;4.374;2023-02-01T13:00:32;12.90;99.90
19999;DHT22;10160;50.926;4.374;2023-02-01T13:06:02;12.70;99.90
19999;DHT22;10160;50.926;4.374;2023-02-01T13:08:46;12.10;99.90
19999;DHT22;10160;50.926;4.374;2023-02-01T13:11:20;12.50;99.90
19999;DHT22;10160;50.926;4.374;2023-02-01T13:13:52;12.80;99.90
19999;DHT22;10160;50.926;4.374;2023-02-01T13:16:34;12.50;99.90
19999;DHT22;10160;50.926;4.374;2023-02-01T13:19:52;13.00;99.90
19999;DHT22;10160;50.926;4.374;2023-02-01T13:21:57;13.10;99.90
19999;DHT22;10160;50.926;4.374;2023-02-01T13:24:32;12.50;99.90
19999;DHT22;10160;50.926;4.374;2023-02-01T13:27:00;12.20;99.90
19999;DHT22;10160;50.926;4.374;2023-02-01T13:29:28;11.90;99.90
19999;DHT22;10160;50.926;4.374;2023-02-01T13:32:02;11.70;99.90
19999;DHT22;10160;50.926;4.374;2023-02-01T13:43:27;11.90;99.90
19999;DHT22;10160;50.926;4.374;2023-02-01T13:45:57;12.00;99.90
19999;DHT22;10160;50.926;4.374;2023-02-01T13:51:00;11.60;99.90
19999;DHT22;10160;50.926;4.374;2023-02-01T13:53:31;11.50;99.90
19999;DHT22;10160;50.926;4.374;2023-02-01T13:56:04;11.90;99.90
19999;DHT22;10160;50.926;4.374;2023-02-01T13:58:40;11.70;99.90
19999;DHT22;10160;50.926;4.374;2023-02-01T14:03:52;11.30;99.90
19999;DHT22;10160;50.926;4.374;2023-02-01T14:09:13;11.00;99.90
19999;DHT22;10160;50.926;4.374;2023-02-01T14:11:55;11.00;99.90
19999;DHT22;10160;50.926;4.374;2023-02-01T14:19:31;10.80;99.90
19999;DHT22;10160;50.926;4.374;2023-02-01T14:21:59;10.90;99.90
19999;DHT22;10160;50.926;4.374;2023-02-01T14:24:32;10.80;99.90
19999;DHT22;10160;50.926;4.374;2023-02-01T14:27:19;10.80;99.90
19999;DHT22;10160;50.926;4.374;2023-02-01T14:30:05;10.70;99.90
19999;DHT22;10160;50.926;4.374;2023-02-01T14:32:39;10.80;99.90
19999;DHT22;10160;50.926;4.374;2023-02-01T14:35:16;10.70;99.90
19999;DHT22;10160;50.926;4.374;2023-02-01T14:37:43;10.70;99.90
19999;DHT22;10160;50.926;4.374;2023-02-01T14:40:15;10.60;99.90
19999;DHT22;10160;50.926;4.374;2023-02-01T14:47:46;10.50;99.90
19999;DHT22;10160;50.926;4.374;2023-02-01T14:58:06;10.40;99.90
19999;DHT22;10160;50.926;4.374;2023-02-01T15:00:36;10.50;99.90
19999;DHT22;10160;50.926;4.374;2023-02-01T15:03:38;10.50;99.90
19999;DHT22;10160;50.926;4.374;2023-02-01T15:06:26;10.30;99.90
19999;DHT22;10160;50.926;4.374;2023-02-01T15:09:11;10.30;99.90
19999;DHT22;10160;50.926;4.374;2023-02-01T15:12:01;10.40;99.90
19999;DHT22;10160;50.926;4.374;2023-02-01T15:14:29;10.20;99.90
19999;DHT22;10160;50.926;4.374;2023-02-01T15:16:55;10.20;99.90
19999;DHT22;10160;50.926;4.374;2023-02-01T15:19:27;10.20;99.90
19999;DHT22;10160;50.926;4.374;2023-02-01T15:21:57;10.20;99.90
19999;DHT22;10160;50.926;4.374;2023-02-01T15:24:30;10.20;99.90
19999;DHT22;10160;50.926;4.374;2023-02-01T15:27:03;10.10;99.90
19999;DHT22;10160;50.926;4.374;2023-02-01T15:29:30;10.20;99.90
19999;DHT22;10160;50.926;4.374;2023-02-01T15:31:58;10.20;99.90
19999;DHT22;10160;50.926;4.374;2023-02-01T15:34:47;10.20;99.90
19999;DHT22;10160;50.926;4.374;2023-02-01T15:37:15;10.10;99.90
19999;DHT22;10160;50.926;4.374;2023-02-01T15:42:28;9.90;99.90
19999;DHT22;10160;50.926;4.374;2023-02-01T15:44:54;9.80;99.90
19999;DHT22;10160;50.926;4.374;2023-02-01T15:47:27;9.80;99.90
19999;DHT22;10160;50.926;4.374;2023-02-01T15:49:59;9.90;99.90
19999;DHT22;10160;50.926;4.374;2023-02-01T15:52:37;9.90;99.90
19999;DHT22;10160;50.926;4.374;2023-02-01T15:55:35;9.90;99.90
19999;DHT22;10160;50.926;4.374;2023-02-01T15:58:16;9.90;99.90
19999;DHT22;10160;50.926;4.374;2023-02-01T16:00:54;10.00;99.90
19999;DHT22;10160;50.926;4.374;2023-02-01T16:03:44;10.00;99.90
19999;DHT22;10160;50.926;4.374;2023-02-01T16:06:26;10.00;99.90
19999;DHT22;10160;50.926;4.374;2023-02-01T16:11:31;10.00;99.90
19999;DHT22;10160;50.926;4.374;2023-02-01T16:14:00;10.00;99.90
19999;DHT22;10160;50.926;4.374;2023-02-01T16:16:28;9.90;99.90
19999;DHT22;10160;50.926;4.374;2023-02-01T16:18:53;9.80;99.90
19999;DHT22;10160;50.926;4.374;2023-02-01T16:21:19;9.80;99.90
19999;DHT22;10160;50.926;4.374;2023-02-01T16:23:52;9.80;99.90
19999;DHT22;10160;50.926;4.374;2023-02-01T16:26:19;9.90;99.90
19999;DHT22;10160;50.926;4.374;2023-02-01T16:28:45;9.80;99.90
19999;DHT22;10160;50.926;4.374;2023-02-01T16:31:13;9.80;99.90
19999;DHT22;10160;50.926;4.374;2023-02-01T16:33:51;9.80;99.90
19999;DHT22;10160;50.926;4.374;2023-02-01T16:36:17;9.80;99.90
19999;DHT22;10160;50.926;4.374;2023-02-01T16:38:44;9.70;99.90
19999;DHT22;10160;50.926;4.374;2023-02-01T16:41:12;9.70;99.90
19999;DHT22;10160;50.926;4.374;2023-02-01T16:43:39;9.80;99.90
19999;DHT22;10160;50.926;4.374;2023-02-01T16:46:04;9.70;99.90
19999;DHT22;10160;50.926;4.374;2023-02-01T16:48:34;9.70;99.90
19999;DHT22;10160;50.926;4.374;2023-02-01T16:51:08;9.70;99.90
19999;DHT22;10160;50.926;4.374;2023-02-01T16:53:35;9.70;99.90
19999;DHT22;10160;50.926;4.374;2023-02-01T16:56:00;9.70;99.90
19999;DHT22;10160;50.926;4.374;2023-02-01T16:58:28;9.70;99.90
19999;DHT22;10160;50.926;4.374;2023-02-01T17:00:54;9.60;99.90
19999;DHT22;10160;50.926;4.374;2023-02-01T17:03:21;9.70;99.90
19999;DHT22;10160;50.926;4.374;2023-02-01T17:05:55;9.60;99.90
19999;DHT22;10160;50.926;4.374;2023-02-01T17:08:33;9.70;99.90
19999;DHT22;10160;50.926;4.374;2023-02-01T17:10:59;9.60;99.90
19999;DHT22;10160;50.926;4.374;2023-02-01T17:13:25;9.50;99.90
19999;DHT22;10160;50.926;4.374;2023-02-01T17:16:04;9.40;99.90
19999;DHT22;10160;50.926;4.374;2023-02-01T17:18:33;9.50;99.90
19999;DHT22;10160;50.926;4.374;2023-02-01T17:21:02;9.50;99.90
19999;DHT22;10160;50.926;4.374;2023-02-01T17:23:29;9.40;99.90
19999;DHT22;10160;50.926;4.374;2023-02-01T17:25:55;9.30;99.90
19999;DHT22;10160;50.926;4.374;2023-02-01T17:28:21;9.40;99.90
19999;DHT22;10160;50.926;4.374;2023-02-01T17:30:47;9.30;99.90
19999;DHT22;10160;50.926;4.374;2023-02-01T17:33:21;9.30;99.90
19999;DHT22;10160;50.926;4.374;2023-02-01T17:35:48;9.30;99.90
19999;DHT22;10160;50.926;4.374;2023-02-01T17:38:14;9.30;99.90
19999;DHT22;10160;50.926;4.374;2023-02-01T17:40:39;9.20;99.90
19999;DHT22;10160;50.926;4.374;2023-02-01T17:43:05;9.30;99.90
19999;DHT22;10160;50.926;4.374;2023-02-01T17:45:46;9.30;99.90
19999;DHT22;10160;50.926;4.374;2023-02-01T17:48:16;9.40;99.90
19999;DHT22;10160;50.926;4.374;2023-02-01T17:50:42;9.40;99.90
19999;DHT22;10160;50.926;4.374;2023-02-01T17:53:09;9.30;99.90
19999;DHT22;10160;50.926;4.374;2023-02-01T17:55:39;9.30;99.90
19999;DHT22;10160;50.926;4.374;2023-02-01T17:58:05;9.30;99.90
19999;DHT22;10160;50.926;4.374;2023-02-01T18:00:31;9.30;99.90
19999;DHT22;10160;50.926;4.374;2023-02-01T18:02:57;9.20;99.90
19999;DHT22;10160;50.926;4.374;2023-02-01T18:05:27;9.30;99.90
19999;DHT22;10160;50.926;4.374;2023-02-01T18:07:54;9.30;99.90
19999;DHT22;10160;50.926;4.374;2023-02-01T18:10:19;9.20;99.90
19999;DHT22;10160;50.926;4.374;2023-02-01T18:12:45;9.30;99.90
19999;DHT22;10160;50.926;4.374;2023-02-01T18:15:19;9.30;99.90
19999;DHT22;10160;50.926;4.374;2023-02-01T18:17:46;9.30;99.90
19999;DHT22;10160;50.926;4.374;2023-02-01T18:20:16;9.20;99.90
19999;DHT22;10160;50.926;4.374;2023-02-01T18:22:43;9.30;99.90
19999;DHT22;10160;50.926;4.374;2023-02-01T18:25:21;9.40;99.90